Time;durP1;ratioP1;P1;durP2;ratioP2;P2;SDS_P1;SDS_P2;PMS_P1;PMS_P2;Temp;Humidity;BMP_temperature;BMP_pressure;BME280_temperature;BME280_humidity;BME280_pressure;Samples;Min_cycle;Max_cycle;Signal;HPM_P1;HPM_P2
2021/10/18 00:00:52;;;;;;;23.48;8.02;;;;;;;2.63;100.00;93550.53;2094030;28;20056;-89
2021/10/18 00:01:53;;;;;;;35.17;8.35;;;;;;;2.48;100.00;93550.31;2099507;28;20070;-91
2021/10/18 00:02:53;;;;;;;38.20;7.20;;;;;;;2.35;100.00;93548.97;2094258;28;20087;-89
2021/10/18 00:03:54;;;;;;;24.40;7.43;;;;;;;2.40;100.00;93545.28;2090872;28;20024;-90
2021/10/18 00:04:55;;;;;;;24.80;7.22;;;;;;;2.36;100.00;93545.22;2094929;28;20051;-89
2021/10/18 00:05:58;;;;;;;55.05;7.40;;;;;;;2.32;100.00;93541.00;2090724;28;20029;-90
2021/10/18 00:06:59;;;;;;;40.38;8.25;;;;;;;2.34;100.00;93546.72;2083944;28;20065;-92
2021/10/18 00:08:00;;;;;;;44.17;7.72;;;;;;;2.22;100.00;93540.47;2090536;28;20500;-90
2021/10/18 00:09:02;;;;;;;28.85;6.28;;;;;;;2.24;100.00;93537.50;2074228;28;20689;-90
2021/10/18 00:10:05;;;;;;;26.73;6.18;;;;;;;2.14;100.00;93543.34;2086055;28;20030;-92
2021/10/18 00:11:06;;;;;;;34.30;6.40;;;;;;;2.11;100.00;93539.56;2092834;28;20447;-91
2021/10/18 00:12:08;;;;;;;22.60;6.07;;;;;;;2.04;100.00;93534.16;2090563;28;20385;-87
2021/10/18 00:13:09;;;;;;;18.13;6.43;;;;;;;1.98;100.00;93541.59;2097648;28;20013;-88
2021/10/18 00:14:10;;;;;;;13.85;5.95;;;;;;;1.98;100.00;93541.59;2098943;28;20465;-89
2021/10/18 00:15:14;;;;;;;11.30;6.43;;;;;;;2.01;100.00;93538.25;2098688;28;20107;-91
2021/10/18 00:16:15;;;;;;;17.48;7.03;;;;;;;2.08;100.00;93540.25;2099225;28;20074;-90
2021/10/18 00:17:16;;;;;;;23.85;7.05;;;;;;;1.88;100.00;93544.78;2098798;28;20062;-89
2021/10/18 00:18:17;;;;;;;13.32;6.57;;;;;;;2.00;100.00;93543.88;2090736;28;20052;-89
2021/10/18 00:19:18;;;;;;;12.65;6.05;;;;;;;2.19;100.00;93549.09;2090514;28;20024;-90
2021/10/18 00:20:19;;;;;;;13.20;7.05;;;;;;;2.07;100.00;93545.88;2099013;28;20062;-91
2021/10/18 00:21:20;;;;;;;16.00;7.20;;;;;;;2.15;100.00;93544.88;2098827;28;20407;-91
2021/10/18 00:22:21;;;;;;;10.98;6.28;;;;;;;2.25;100.00;93545.06;2098871;28;20024;-89
2021/10/18 00:23:22;;;;;;;20.60;6.88;;;;;;;2.13;100.00;93545.22;2090219;28;20401;-90
2021/10/18 00:24:23;;;;;;;20.02;6.72;;;;;;;2.10;100.00;93542.53;2094619;28;20024;-87
2021/10/18 00:25:24;;;;;;;14.65;6.20;;;;;;;2.31;100.00;93547.41;2094317;28;20035;-89
2021/10/18 00:26:25;;;;;;;17.13;7.22;;;;;;;2.16;100.00;93541.16;2098021;28;20116;-88
2021/10/18 00:27:26;;;;;;;17.95;7.47;;;;;;;1.95;100.00;93544.94;2098258;28;20028;-91
2021/10/18 00:28:27;;;;;;;16.95;7.55;;;;;;;1.90;100.00;93542.59;2085546;28;20061;-90
2021/10/18 00:29:28;;;;;;;12.18;7.35;;;;;;;1.96;100.00;93543.81;2082339;28;20108;-87
2021/10/18 00:30:29;;;;;;;11.80;7.07;;;;;;;1.89;100.00;93548.97;2090500;28;20025;-89
2021/10/18 00:31:30;;;;;;;11.55;7.22;;;;;;;1.83;100.00;93545.09;2094200;28;20032;-91
2021/10/18 00:32:31;;;;;;;11.60;6.15;;;;;;;1.88;100.00;93552.69;2098736;28;20028;-91
2021/10/18 00:33:32;;;;;;;9.80;6.55;;;;;;;1.96;100.00;93549.09;2093525;28;20102;-88
2021/10/18 00:34:33;;;;;;;13.85;6.55;;;;;;;1.93;100.00;93555.06;2090515;28;20021;-91
2021/10/18 00:35:34;;;;;;;11.85;6.45;;;;;;;1.83;100.00;93562.78;2093129;28;20024;-90
2021/10/18 00:36:35;;;;;;;13.90;6.63;;;;;;;1.74;100.00;93558.47;2090554;28;20051;-88
2021/10/18 00:37:37;;;;;;;11.93;6.95;;;;;;;1.65;100.00;93559.81;2096370;28;20481;-89
2021/10/18 00:38:38;;;;;;;12.77;7.28;;;;;;;1.66;100.00;93556.06;2090631;28;20098;-90
2021/10/18 00:39:39;;;;;;;10.35;6.43;;;;;;;1.66;100.00;93556.81;2098563;28;20103;-90
2021/10/18 00:40:40;;;;;;;12.27;6.63;;;;;;;1.59;100.00;93553.31;2100419;28;20043;-91
2021/10/18 00:41:41;;;;;;;15.00;7.13;;;;;;;1.69;100.00;93558.00;2096708;28;20020;-90
2021/10/18 00:42:42;;;;;;;21.38;7.55;;;;;;;1.65;100.00;93554.53;2106834;28;20381;-88
2021/10/18 00:43:46;;;;;;;17.85;7.05;;;;;;;1.85;100.00;93550.03;2095824;28;20028;-88
2021/10/18 00:44:49;;;;;;;20.92;6.90;;;;;;;1.80;100.00;93551.06;2091351;28;20123;-89
2021/10/18 00:45:51;;;;;;;26.55;7.18;;;;;;;1.81;100.00;93549.94;2094737;28;20108;-88
2021/10/18 00:46:52;;;;;;;11.95;6.40;;;;;;;1.74;100.00;93547.19;2107044;28;20748;-92
2021/10/18 00:47:53;;;;;;;13.07;7.45;;;;;;;1.70;100.00;93546.34;2097274;28;20047;-88
2021/10/18 00:48:54;;;;;;;11.93;6.88;;;;;;;1.74;100.00;93542.66;2090169;28;20021;-87
2021/10/18 00:49:55;;;;;;;10.50;6.63;;;;;;;1.84;100.00;93557.16;2089611;28;20021;-90
2021/10/18 00:50:57;;;;;;;8.57;6.18;;;;;;;1.92;100.00;93558.03;2082817;28;20028;-89
2021/10/18 00:51:59;;;;;;;10.98;6.47;;;;;;;1.78;100.00;93563.81;2106080;28;20054;-89
2021/10/18 00:53:00;;;;;;;7.65;5.60;;;;;;;1.72;100.00;93557.31;2100306;28;20101;-91
2021/10/18 00:54:02;;;;;;;7.90;5.80;;;;;;;1.66;100.00;93561.31;2111974;28;20030;-89
2021/10/18 00:55:05;;;;;;;9.90;5.95;;;;;;;1.52;100.00;93559.94;2106705;28;20016;-89
2021/10/18 00:56:06;;;;;;;10.35;6.38;;;;;;;1.46;100.00;93553.44;2090411;28;20032;-89
2021/10/18 00:57:07;;;;;;;9.77;5.75;;;;;;;1.40;100.00;93551.41;2090371;28;20021;-88
2021/10/18 00:58:08;;;;;;;8.23;5.45;;;;;;;1.46;100.00;93558.72;2090038;28;20050;-88
2021/10/18 00:59:09;;;;;;;10.05;5.20;;;;;;;1.58;100.00;93568.34;2098648;28;20028;-92
2021/10/18 01:00:11;;;;;;;7.60;5.63;;;;;;;1.65;100.00;93562.44;2106494;28;20024;-91
2021/10/18 01:01:12;;;;;;;9.65;5.25;;;;;;;1.56;100.00;93564.53;2098750;28;20024;-90
2021/10/18 01:02:14;;;;;;;8.32;5.80;;;;;;;1.52;100.00;93567.09;2098265;28;20033;-90
2021/10/18 01:03:16;;;;;;;6.55;5.43;;;;;;;1.48;100.00;93564.38;2098359;28;20047;-88
2021/10/18 01:04:18;;;;;;;10.95;5.88;;;;;;;1.43;100.00;93556.00;2106435;28;20027;-92
2021/10/18 01:05:20;;;;;;;7.18;5.15;;;;;;;1.38;100.00;93564.94;2099041;28;20508;-92
2021/10/18 01:06:21;;;;;;;7.53;5.68;;;;;;;1.47;100.00;93562.88;2098062;28;20028;-88
2021/10/18 01:07:22;;;;;;;6.97;5.18;;;;;;;1.51;100.00;93562.94;2098563;28;20059;-87
2021/10/18 01:08:23;;;;;;;8.10;5.60;;;;;;;1.43;100.00;93569.94;2103089;28;20081;-88
2021/10/18 01:09:25;;;;;;;6.80;5.32;;;;;;;1.33;100.00;93562.59;2090179;28;20483;-90
2021/10/18 01:10:26;;;;;;;9.07;6.10;;;;;;;1.33;100.00;93567.09;2095232;28;20053;-88
2021/10/18 01:11:27;;;;;;;7.80;5.40;;;;;;;1.32;100.00;93565.56;2106745;28;20043;-88
2021/10/18 01:12:28;;;;;;;8.40;5.75;;;;;;;1.31;100.00;93564.78;2101735;28;20541;-89
2021/10/18 01:13:29;;;;;;;7.57;5.00;;;;;;;1.30;100.00;93567.78;2098006;28;20050;-91
2021/10/18 01:14:30;;;;;;;7.47;5.60;;;;;;;1.31;100.00;93575.31;2090196;28;20096;-89
2021/10/18 01:15:31;;;;;;;7.47;5.43;;;;;;;1.26;100.00;93565.06;2090125;28;20110;-89
2021/10/18 01:16:33;;;;;;;7.53;5.35;;;;;;;1.23;100.00;93566.53;2090098;28;20108;-87
2021/10/18 01:17:34;;;;;;;8.00;5.10;;;;;;;1.22;100.00;93558.97;2090085;28;20032;-88
2021/10/18 01:18:35;;;;;;;9.75;5.95;;;;;;;1.21;100.00;93562.72;2098274;28;20017;-90
2021/10/18 01:19:36;;;;;;;13.15;5.55;;;;;;;1.25;100.00;93572.22;2081928;28;20034;-92
2021/10/18 01:20:39;;;;;;;7.85;4.63;;;;;;;1.26;100.00;93559.81;2090091;28;20111;-87
2021/10/18 01:21:42;;;;;;;7.63;5.38;;;;;;;1.11;100.00;93568.53;2090137;28;20079;-90
2021/10/18 01:22:43;;;;;;;7.50;5.35;;;;;;;1.05;100.00;93568.00;2098205;28;20024;-87
2021/10/18 01:23:44;;;;;;;7.28;5.05;;;;;;;1.05;100.00;93573.28;2092499;28;20020;-91
2021/10/18 01:24:45;;;;;;;7.55;5.25;;;;;;;0.88;100.00;93576.28;2090170;28;20178;-89
2021/10/18 01:25:46;;;;;;;8.52;5.47;;;;;;;0.95;100.00;93565.94;2107040;28;20359;-87
2021/10/18 01:26:47;;;;;;;7.47;5.20;;;;;;;0.83;100.00;93572.06;2098330;28;20487;-89
2021/10/18 01:27:48;;;;;;;6.40;5.30;;;;;;;0.87;100.00;93570.25;2092287;28;20056;-91
2021/10/18 01:28:49;;;;;;;8.50;5.15;;;;;;;0.90;100.00;93571.47;2090218;28;20104;-90
2021/10/18 01:29:50;;;;;;;7.22;4.97;;;;;;;0.83;100.00;93569.41;2087514;28;20135;-90
2021/10/18 01:30:52;;;;;;;7.22;5.57;;;;;;;0.98;100.00;93571.28;2081993;28;20092;-90
2021/10/18 01:31:52;;;;;;;8.73;4.88;;;;;;;0.91;100.00;93571.09;2092167;28;20025;-88
2021/10/18 01:32:54;;;;;;;7.28;5.32;;;;;;;0.77;100.00;93564.78;2089935;28;20017;-90
2021/10/18 01:33:55;;;;;;;8.35;5.15;;;;;;;1.04;100.00;93576.25;2093890;28;20078;-87
2021/10/18 01:34:57;;;;;;;6.88;5.03;;;;;;;0.91;100.00;93572.97;2105446;28;20016;-86
2021/10/18 01:35:58;;;;;;;8.98;5.20;;;;;;;0.83;100.00;93572.06;2103832;28;20030;-87
2021/10/18 01:37:01;;;;;;;7.35;5.13;;;;;;;0.89;100.00;93575.97;2101119;28;20016;-86
2021/10/18 01:38:02;;;;;;;8.93;5.18;;;;;;;0.91;100.00;93575.59;2100577;28;20025;-87
2021/10/18 01:39:04;;;;;;;6.60;5.10;;;;;;;0.74;100.00;93577.50;2089920;28;20017;-89
2021/10/18 01:40:16;;;;;;;7.47;5.30;;;;;;;0.68;100.00;93570.97;2090202;28;20020;-92
2021/10/18 01:41:17;;;;;;;7.00;4.60;;;;;;;0.55;100.00;93566.94;2085010;28;20438;-92
2021/10/18 01:42:18;;;;;;;6.78;5.10;;;;;;;0.58;100.00;93568.13;2102278;28;20388;-89
2021/10/18 01:43:19;;;;;;;7.20;5.30;;;;;;;0.55;100.00;93572.19;2098399;28;20040;-88
2021/10/18 01:44:20;;;;;;;6.55;4.70;;;;;;;0.53;100.00;93566.50;2090120;28;20028;-89
2021/10/18 01:45:22;;;;;;;6.57;4.47;;;;;;;0.55;100.00;93569.56;2098664;28;20024;-87
2021/10/18 01:46:23;;;;;;;7.53;5.10;;;;;;;0.58;100.00;93574.13;2098180;28;20035;-86
2021/10/18 01:47:26;;;;;;;7.20;5.20;;;;;;;0.54;100.00;93569.91;2106526;28;20450;-88
2021/10/18 01:48:27;;;;;;;8.15;4.95;;;;;;;0.61;100.00;93565.56;2089958;28;20021;-87
2021/10/18 01:49:29;;;;;;;7.72;4.72;;;;;;;0.57;100.00;93569.19;2090273;28;20504;-88
2021/10/18 01:50:33;;;;;;;7.85;5.97;;;;;;;0.63;100.00;93565.97;2094523;28;20436;-89
2021/10/18 01:51:34;;;;;;;6.13;4.50;;;;;;;0.49;100.00;93568.28;2090372;28;20036;-89
2021/10/18 01:52:35;;;;;;;8.52;4.90;;;;;;;0.57;100.00;93575.25;2081483;28;20478;-88
2021/10/18 01:53:37;;;;;;;9.07;4.93;;;;;;;0.50;100.00;93570.56;2087623;28;20048;-87
2021/10/18 01:54:38;;;;;;;6.07;4.50;;;;;;;0.55;100.00;93572.19;2084083;28;20120;-85
2021/10/18 01:55:39;;;;;;;7.53;5.18;;;;;;;0.52;100.00;93577.34;2082421;28;20029;-89
2021/10/18 01:56:41;;;;;;;7.22;5.00;;;;;;;0.46;100.00;93585.50;2097750;28;20466;-86
2021/10/18 01:57:42;;;;;;;8.15;5.60;;;;;;;0.34;100.00;93579.56;2096345;28;20028;-86
2021/10/18 01:58:43;;;;;;;7.03;4.80;;;;;;;0.22;100.00;93577.78;2089733;28;20017;-88
2021/10/18 01:59:44;;;;;;;8.57;4.35;;;;;;;0.34;100.00;93571.69;2097779;28;20028;-87
2021/10/18 02:00:45;;;;;;;7.93;4.90;;;;;;;0.30;100.00;93570.81;2094391;28;20099;-88
2021/10/18 02:01:46;;;;;;;6.85;4.72;;;;;;;0.21;100.00;93571.00;2088573;28;20025;-91
2021/10/18 02:02:48;;;;;;;7.05;4.72;;;;;;;0.23;100.00;93574.06;2084734;28;20528;-88
2021/10/18 02:03:52;;;;;;;5.85;4.38;;;;;;;0.20;100.00;93564.97;2098784;28;20036;-86
2021/10/18 02:04:56;;;;;;;5.88;4.55;;;;;;;0.17;100.00;93570.91;2106225;28;20465;-88
2021/10/18 02:08:04;;;;;;;;;;;;;;;0.02;100.00;93576.91;2122842;27;20550;-89
2021/10/18 02:09:05;;;;;;;6.35;4.43;;;;;;;0.03;100.00;93575.06;2110519;28;19916;-88
2021/10/18 02:10:06;;;;;;;4.65;4.05;;;;;;;0.07;100.00;93581.16;2098763;28;20505;-88
2021/10/18 02:11:07;;;;;;;9.60;4.38;;;;;;;0.09;100.00;93574.47;2092250;28;20029;-87
2021/10/18 02:12:08;;;;;;;6.63;4.30;;;;;;;0.05;100.00;93578.13;2090378;28;20088;-90
2021/10/18 02:13:10;;;;;;;5.15;4.38;;;;;;;-0.08;100.00;93582.69;2089415;28;20033;-87
2021/10/18 02:14:11;;;;;;;5.10;4.30;;;;;;;-0.11;100.00;93580.72;2084635;28;20036;-90
2021/10/18 02:15:12;;;;;;;5.78;4.25;;;;;;;-0.11;100.00;93576.22;2091046;28;20075;-89
2021/10/18 02:16:13;;;;;;;7.80;4.47;;;;;;;0.02;100.00;93573.53;2090678;28;20036;-89
2021/10/18 02:17:14;;;;;;;8.30;5.05;;;;;;;0.18;100.00;93576.94;2087038;28;20033;-88
2021/10/18 02:18:15;;;;;;;6.80;4.40;;;;;;;0.12;100.00;93578.28;2082466;28;20124;-88
2021/10/18 02:19:16;;;;;;;5.90;4.35;;;;;;;0.11;100.00;93576.75;2082679;28;20030;-87
2021/10/18 02:20:17;;;;;;;4.80;4.20;;;;;;;0.08;100.00;93577.44;2085547;28;20060;-87
2021/10/18 02:21:18;;;;;;;5.30;4.43;;;;;;;-0.07;100.00;93577.06;2087595;28;20053;-88
2021/10/18 02:22:19;;;;;;;5.85;4.28;;;;;;;-0.07;100.00;93571.06;2082732;28;20120;-89
2021/10/18 02:23:20;;;;;;;6.88;4.22;;;;;;;-0.12;100.00;93572.06;2090751;28;20060;-88
2021/10/18 02:24:21;;;;;;;4.25;3.85;;;;;;;-0.22;100.00;93572.56;2082541;28;20073;-88
2021/10/18 02:25:21;;;;;;;5.20;3.88;;;;;;;-0.16;100.00;93576.47;2089272;28;20085;-89
2021/10/18 02:26:23;;;;;;;6.28;4.05;;;;;;;-0.27;100.00;93563.03;2080872;28;20471;-89
2021/10/18 02:27:24;;;;;;;5.38;4.00;;;;;;;-0.33;100.00;93564.41;2089929;28;20029;-87
2021/10/18 02:28:25;;;;;;;7.35;3.78;;;;;;;-0.27;100.00;93560.41;2082275;28;20064;-90
2021/10/18 02:29:26;;;;;;;6.15;4.32;;;;;;;-0.19;100.00;93563.25;2084487;28;20116;-89
2021/10/18 02:30:27;;;;;;;4.72;3.65;;;;;;;-0.18;100.00;93564.75;2090612;28;20104;-90
2021/10/18 02:31:28;;;;;;;7.50;3.88;;;;;;;-0.31;100.00;93567.47;2094127;28;20036;-87
2021/10/18 02:32:29;;;;;;;6.22;3.75;;;;;;;-0.39;100.00;93565.00;2090600;28;20102;-86
2021/10/18 02:33:33;;;;;;;4.68;4.05;;;;;;;-0.48;100.00;93569.59;2082303;28;20032;-88
2021/10/18 02:34:34;;;;;;;4.68;3.95;;;;;;;-0.33;100.00;93561.78;2092215;28;20056;-87
2021/10/18 02:35:35;;;;;;;6.43;3.67;;;;;;;-0.27;100.00;93560.41;2092430;28;20039;-90
2021/10/18 02:36:35;;;;;;;4.20;3.70;;;;;;;-0.17;100.00;93564.44;2090551;28;20482;-89
2021/10/18 02:37:37;;;;;;;4.85;3.90;;;;;;;-0.19;100.00;93569.25;2084549;28;20061;-88
2021/10/18 02:38:39;;;;;;;4.63;3.90;;;;;;;-0.29;100.00;93565.25;2089999;28;20036;-89
2021/10/18 02:39:40;;;;;;;4.75;3.75;;;;;;;-0.35;100.00;93571.06;2091719;28;20029;-88
2021/10/18 02:40:41;;;;;;;5.90;4.25;;;;;;;-0.24;100.00;93566.13;2089878;28;20068;-91
2021/10/18 02:41:42;;;;;;;4.53;3.88;;;;;;;-0.23;100.00;93562.38;2098070;28;20103;-89
2021/10/18 02:42:43;;;;;;;5.38;4.07;;;;;;;-0.24;100.00;93566.13;2089703;28;20025;-91
2021/10/18 02:43:44;;;;;;;4.35;3.35;;;;;;;-0.31;100.00;93556.16;2088529;28;20060;-88
2021/10/18 02:44:45;;;;;;;7.03;4.22;;;;;;;-0.45;100.00;93564.44;2097223;28;20032;-90
2021/10/18 02:45:46;;;;;;;6.85;3.88;;;;;;;-0.57;100.00;93567.09;2090930;28;20505;-89
2021/10/18 02:46:47;;;;;;;5.93;4.38;;;;;;;-0.55;100.00;93565.69;2081986;28;20405;-90
2021/10/18 02:47:48;;;;;;;4.95;3.83;;;;;;;-0.40;100.00;93569.44;2073599;28;20062;-90
2021/10/18 02:48:49;;;;;;;5.60;3.65;;;;;;;-0.35;100.00;93561.34;2098058;28;20056;-89
2021/10/18 02:49:49;;;;;;;6.47;3.90;;;;;;;-0.42;100.00;93565.66;2098293;28;20025;-88
2021/10/18 02:50:52;;;;;;;4.25;3.80;;;;;;;-0.55;100.00;93570.94;2097590;28;20024;-92
2021/10/18 02:51:53;;;;;;;4.45;3.47;;;;;;;-0.54;100.00;93577.72;2091755;28;20033;-89
2021/10/18 02:52:54;;;;;;;4.68;3.83;;;;;;;-0.44;100.00;93570.47;2081404;28;20482;-90
2021/10/18 02:53:55;;;;;;;5.47;3.80;;;;;;;-0.45;100.00;93569.69;2081345;28;20120;-88
2021/10/18 02:54:56;;;;;;;5.63;4.20;;;;;;;-0.45;100.00;93582.81;2085008;28;20772;-89
2021/10/18 02:55:57;;;;;;;3.88;3.45;;;;;;;-0.58;100.00;93581.34;2075214;28;20491;-90
2021/10/18 02:56:58;;;;;;;6.78;3.78;;;;;;;-0.50;100.00;93577.81;2080480;28;20029;-92
2021/10/18 02:57:59;;;;;;;6.07;3.88;;;;;;;-0.39;100.00;93578.13;2089505;28;20048;-87
2021/10/18 02:59:00;;;;;;;4.10;3.65;;;;;;;-0.41;100.00;93585.56;2081046;28;20491;-90
2021/10/18 03:00:02;;;;;;;4.22;3.83;;;;;;;-0.43;100.00;93585.13;2080509;28;20029;-88
2021/10/18 03:01:03;;;;;;;4.93;3.92;;;;;;;-0.55;100.00;93584.06;2080958;28;20240;-88
2021/10/18 03:02:04;;;;;;;5.32;4.00;;;;;;;-0.58;100.00;93589.22;2080307;28;20026;-88
2021/10/18 03:03:06;;;;;;;5.10;3.92;;;;;;;-0.54;100.00;93582.97;2079989;28;20041;-89
2021/10/18 03:04:07;;;;;;;4.05;3.50;;;;;;;-0.53;100.00;93589.75;2080745;28;20450;-90
2021/10/18 03:05:11;;;;;;;4.53;3.60;;;;;;;-0.61;100.00;93588.03;2086909;28;20497;-87
2021/10/18 03:06:12;;;;;;;8.05;3.78;;;;;;;-0.68;100.00;93581.81;2089202;28;20080;-89
2021/10/18 03:07:14;;;;;;;5.13;3.92;;;;;;;-0.68;100.00;93585.19;2079918;28;20030;-87
2021/10/18 03:08:15;;;;;;;5.80;3.65;;;;;;;-0.66;100.00;93587.47;2080476;28;20038;-91
2021/10/18 03:09:16;;;;;;;5.25;3.83;;;;;;;-0.59;100.00;93588.47;2080511;28;20036;-90
2021/10/18 03:10:18;;;;;;;4.18;3.47;;;;;;;-0.69;100.00;93588.16;2072188;28;20038;-89
2021/10/18 03:11:19;;;;;;;9.25;3.45;;;;;;;-0.80;100.00;93587.84;2071594;28;20026;-93
2021/10/18 03:12:20;;;;;;;5.75;3.92;;;;;;;-0.82;100.00;93588.19;2064017;28;20511;-90
2021/10/18 03:13:21;;;;;;;6.93;3.75;;;;;;;-0.86;100.00;93589.19;2071573;28;20030;-88
2021/10/18 03:14:22;;;;;;;4.93;3.50;;;;;;;-0.74;100.00;93585.78;2080012;28;20026;-88
2021/10/18 03:15:23;;;;;;;3.88;3.38;;;;;;;-0.72;100.00;93586.97;2065197;28;20026;-87
2021/10/18 03:16:24;;;;;;;7.43;3.42;;;;;;;-0.82;100.00;93584.81;2063859;28;20580;-89
2021/10/18 03:17:26;;;;;;;4.60;3.40;;;;;;;-0.77;100.00;93585.34;2074107;28;20034;-90
2021/10/18 03:18:27;;;;;;;6.05;3.70;;;;;;;-0.71;100.00;93591.09;2075676;28;20427;-90
2021/10/18 03:19:28;;;;;;;4.47;3.83;;;;;;;-0.81;100.00;93587.09;2076529;28;20021;-87
2021/10/18 03:20:29;;;;;;;5.72;3.63;;;;;;;-0.89;100.00;93585.38;2087708;28;20044;-86
2021/10/18 03:21:30;;;;;;;4.57;3.42;;;;;;;-0.87;100.00;93591.06;2085576;28;20049;-85
2021/10/18 03:22:31;;;;;;;3.40;3.05;;;;;;;-0.90;100.00;93585.69;2087128;28;20029;-88
2021/10/18 03:23:32;;;;;;;5.72;3.40;;;;;;;-0.86;100.00;93587.31;2066372;28;20460;-87
2021/10/18 03:24:33;;;;;;;3.97;3.20;;;;;;;-0.84;100.00;93593.00;2066278;28;20037;-90
2021/10/18 03:25:34;;;;;;;3.78;3.20;;;;;;;-0.82;100.00;93595.31;2070946;28;20032;-87
2021/10/18 03:26:36;;;;;;;3.15;2.78;;;;;;;-0.80;100.00;93593.88;2074266;28;20033;-91
2021/10/18 03:27:37;;;;;;;3.75;2.88;;;;;;;-0.88;100.00;93594.78;2065989;28;20689;-86
2021/10/18 03:28:38;;;;;;;4.00;2.88;;;;;;;-0.78;100.00;93602.19;2074474;28;20030;-89
2021/10/18 03:29:39;;;;;;;3.70;3.20;;;;;;;-0.84;100.00;93594.84;2071065;28;20482;-88
2021/10/18 03:30:40;;;;;;;4.45;3.15;;;;;;;-0.82;100.00;93597.94;2082630;28;20053;-88
2021/10/18 03:31:40;;;;;;;3.30;3.00;;;;;;;-0.83;100.00;93593.78;2082203;28;20513;-89
2021/10/18 03:32:41;;;;;;;5.32;3.22;;;;;;;-0.99;100.00;93598.94;2074383;28;20034;-90
2021/10/18 03:33:42;;;;;;;4.93;3.08;;;;;;;-0.90;100.00;93596.19;2072552;28;20022;-86
2021/10/18 03:34:43;;;;;;;3.97;3.08;;;;;;;-0.82;100.00;93603.94;2067795;28;20415;-91
2021/10/18 03:35:44;;;;;;;4.45;3.78;;;;;;;-0.74;100.00;93597.03;2062251;28;20073;-90
2021/10/18 03:36:45;;;;;;;4.82;3.20;;;;;;;-0.77;100.00;93608.19;2067082;28;20570;-88
2021/10/18 03:37:46;;;;;;;4.15;3.72;;;;;;;-0.78;100.00;93604.81;2070348;28;20038;-86
2021/10/18 03:38:47;;;;;;;3.95;3.03;;;;;;;-0.85;100.00;93604.59;2069603;28;20058;-87
2021/10/18 03:39:48;;;;;;;3.60;3.30;;;;;;;-0.94;100.00;93597.94;2066366;28;20029;-87
2021/10/18 03:40:49;;;;;;;3.88;3.47;;;;;;;-0.96;100.00;93606.16;2066478;28;20026;-86
2021/10/18 03:41:50;;;;;;;4.70;3.75;;;;;;;-0.85;100.00;93601.97;2064371;28;20054;-89
2021/10/18 03:42:51;;;;;;;4.15;3.65;;;;;;;-0.76;100.00;93605.22;2074030;28;20025;-88
2021/10/18 03:43:52;;;;;;;3.65;3.25;;;;;;;-0.79;100.00;93605.13;2062170;28;20034;-88
2021/10/18 03:44:53;;;;;;;7.22;3.40;;;;;;;-0.83;100.00;93602.41;2066161;28;20467;-87
2021/10/18 03:45:54;;;;;;;4.68;3.60;;;;;;;-0.78;100.00;93604.06;2067289;28;20033;-89
2021/10/18 03:46:55;;;;;;;3.65;3.15;;;;;;;-0.90;100.00;93602.22;2067749;28;20109;-89
2021/10/18 03:47:56;;;;;;;4.82;3.72;;;;;;;-1.02;100.00;93605.59;2066167;28;20026;-89
2021/10/18 03:48:57;;;;;;;3.53;3.22;;;;;;;-1.04;100.00;93602.56;2065556;28;20038;-87
2021/10/18 03:49:58;;;;;;;4.90;3.55;;;;;;;-0.96;100.00;93606.16;2069026;28;20056;-89
2021/10/18 03:50:59;;;;;;;3.45;3.15;;;;;;;-1.02;100.00;93607.47;2066127;28;20041;-89
2021/10/18 03:52:00;;;;;;;4.53;3.42;;;;;;;-1.07;100.00;93602.44;2079321;28;20485;-88
2021/10/18 03:53:01;;;;;;;7.30;3.70;;;;;;;-1.04;100.00;93599.19;2074086;28;20029;-86
2021/10/18 03:54:02;;;;;;;5.97;3.63;;;;;;;-1.07;100.00;93605.84;2074149;28;20453;-90
2021/10/18 03:55:03;;;;;;;4.60;3.03;;;;;;;-0.98;100.00;93605.72;2082257;28;20401;-89
2021/10/18 03:56:04;;;;;;;4.22;3.50;;;;;;;-1.03;100.00;93605.94;2080767;28;20029;-88
2021/10/18 03:57:05;;;;;;;4.03;3.28;;;;;;;-0.96;100.00;93605.41;2082458;28;20052;-89
2021/10/18 03:58:06;;;;;;;4.78;3.20;;;;;;;-1.13;100.00;93601.91;2087755;28;20132;-90
2021/10/18 03:59:07;;;;;;;3.63;3.10;;;;;;;-1.08;100.00;93598.31;2074052;28;20490;-86
2021/10/18 04:00:09;;;;;;;3.13;2.80;;;;;;;-1.02;100.00;93605.59;2065951;28;20026;-87
2021/10/18 04:01:10;;;;;;;4.38;3.03;;;;;;;-0.88;100.00;93612.38;2074196;28;20494;-90
2021/10/18 04:02:11;;;;;;;3.30;3.00;;;;;;;-0.94;100.00;93616.31;2074238;28;20050;-89
2021/10/18 04:03:12;;;;;;;3.58;3.10;;;;;;;-0.95;100.00;93612.16;2066121;28;20022;-92
2021/10/18 04:04:13;;;;;;;3.20;2.88;;;;;;;-0.85;100.00;93622.19;2078713;28;20030;-89
2021/10/18 04:05:14;;;;;;;6.25;3.13;;;;;;;-0.83;100.00;93620.78;2090359;28;20057;-90
2021/10/18 04:06:15;;;;;;;3.65;2.90;;;;;;;-0.84;100.00;93611.38;2087447;28;20029;-88
2021/10/18 04:07:17;;;;;;;4.75;2.90;;;;;;;-1.06;100.00;93611.84;2075467;28;20029;-87
2021/10/18 04:08:23;;;;;;;4.57;3.00;;;;;;;-1.05;100.00;93626.50;2074889;28;20029;-87
2021/10/18 04:09:24;;;;;;;3.28;2.65;;;;;;;-1.04;100.00;93620.16;2078091;28;20024;-90
2021/10/18 04:10:25;;;;;;;2.97;2.67;;;;;;;-1.08;100.00;93617.44;2071338;28;20034;-91
2021/10/18 04:11:26;;;;;;;2.80;2.60;;;;;;;-1.16;100.00;93626.16;2078270;28;20470;-87
2021/10/18 04:12:27;;;;;;;3.88;2.80;;;;;;;-1.12;100.00;93621.03;2087423;28;20041;-89
2021/10/18 04:13:28;;;;;;;4.82;3.20;;;;;;;-1.17;100.00;93621.25;2081993;28;20021;-86
2021/10/18 04:14:29;;;;;;;6.53;2.75;;;;;;;-1.05;100.00;93622.03;2078437;28;20385;-88
2021/10/18 04:15:30;;;;;;;2.83;2.63;;;;;;;-1.06;100.00;93625.72;2079986;28;20040;-91
2021/10/18 04:16:32;;;;;;;3.08;2.78;;;;;;;-1.04;100.00;93628.03;2082262;28;20037;-90
2021/10/18 04:17:33;;;;;;;3.08;2.65;;;;;;;-1.10;100.00;93630.13;2082796;28;20104;-87
2021/10/18 04:18:34;;;;;;;4.70;4.15;;;;;;;-1.00;100.00;93636.00;2069124;28;20031;-87
2021/10/18 04:19:35;;;;;;;7.68;4.88;;;;;;;-0.97;100.00;93633.47;2077322;28;20021;-90
2021/10/18 04:20:36;;;;;;;6.88;5.63;;;;;;;-1.04;100.00;93625.41;2090544;28;20052;-86
2021/10/18 04:21:37;;;;;;;7.60;5.90;;;;;;;-0.99;100.00;93632.28;2098669;28;20031;-88
2021/10/18 04:22:37;;;;;;;6.90;6.20;;;;;;;-1.11;100.00;93625.94;2090411;28;20021;-88
2021/10/18 04:23:38;;;;;;;7.50;6.55;;;;;;;-1.20;100.00;93627.91;2079555;28;20021;-87
2021/10/18 04:24:39;;;;;;;7.38;6.35;;;;;;;-1.22;100.00;93624.13;2090599;28;20115;-86
2021/10/18 04:25:40;;;;;;;6.70;5.70;;;;;;;-1.21;100.00;93630.88;2088846;28;20135;-86
2021/10/18 04:26:41;;;;;;;5.82;5.15;;;;;;;-1.21;100.00;93636.88;2074019;28;20017;-86
2021/10/18 04:27:43;;;;;;;5.13;4.40;;;;;;;-1.27;100.00;93641.59;2081796;28;20093;-85
2021/10/18 04:28:44;;;;;;;4.60;4.20;;;;;;;-1.19;100.00;93631.31;2073955;28;20104;-86
2021/10/18 04:29:45;;;;;;;6.10;4.65;;;;;;;-1.04;100.00;93643.78;2079199;28;20506;-89
2021/10/18 04:30:46;;;;;;;7.93;6.00;;;;;;;-1.02;100.00;93639.72;2073165;28;20029;-88
2021/10/18 04:31:47;;;;;;;6.78;6.03;;;;;;;-1.00;100.00;93647.28;2081886;28;20109;-90
2021/10/18 04:32:48;;;;;;;5.45;5.00;;;;;;;-1.09;100.00;93647.38;2089108;28;20029;-87
2021/10/18 04:33:49;;;;;;;5.70;5.15;;;;;;;-0.88;100.00;93647.25;2074727;28;20035;-88
2021/10/18 04:34:50;;;;;;;6.97;4.82;;;;;;;-0.94;100.00;93643.31;2082167;28;20124;-86
2021/10/18 04:35:51;;;;;;;6.10;4.82;;;;;;;-0.92;100.00;93648.22;2096856;28;20066;-90
2021/10/18 04:36:53;;;;;;;4.28;3.35;;;;;;;-0.80;100.00;93641.09;2081909;28;20065;-86
2021/10/18 04:37:54;;;;;;;3.95;3.55;;;;;;;-0.94;100.00;93642.56;2089129;28;20125;-87
2021/10/18 04:38:55;;;;;;;3.75;3.40;;;;;;;-1.05;100.00;93652.75;2073559;28;20026;-87
2021/10/18 04:39:56;;;;;;;4.68;3.40;;;;;;;-0.97;100.00;93654.47;2073417;28;20025;-88
2021/10/18 04:40:57;;;;;;;3.65;3.30;;;;;;;-0.99;100.00;93648.03;2073797;28;20471;-85
2021/10/18 04:41:58;;;;;;;2.88;2.65;;;;;;;-0.90;100.00;93641.56;2065721;28;20027;-86
2021/10/18 04:42:59;;;;;;;3.60;2.83;;;;;;;-0.92;100.00;93650.84;2073779;28;20054;-86
2021/10/18 04:44:00;;;;;;;3.72;2.72;;;;;;;-0.99;100.00;93654.03;2089792;28;20427;-86
2021/10/18 04:45:01;;;;;;;3.00;2.70;;;;;;;-1.13;100.00;93657.00;2074953;28;20053;-86
2021/10/18 04:46:03;;;;;;;3.95;2.80;;;;;;;-1.06;100.00;93659.81;2081478;28;20108;-86
2021/10/18 04:47:05;;;;;;;8.05;2.40;;;;;;;-1.17;100.00;93652.72;2065771;28;20029;-89
2021/10/18 04:48:06;;;;;;;2.97;2.42;;;;;;;-1.22;100.00;93664.22;2059182;28;20407;-88